Time,TemperatureF,DewpointF,PressureIn,WindDirection,WindDirectionDegrees,WindSpeedMPH,WindSpeedGustMPH,Humidity,HourlyPrecipIn,Conditions,Clouds,dailyrainin,SoftwareType,DateUTC
2013-02-13 00:14:00,44.7,40.0,29.95,SSE,167,2.0,2.0,82,0.04,,,0.05,weatherlink.com 1.10,2013-02-13 05:14:00,
2013-02-13 00:29:00,44.0,40.0,29.92,SE,134,0.0,3.0,86,0.02,,,0.00,weatherlink.com 1.10,2013-02-13 05:29:00,
2013-02-13 00:44:00,43.8,41.0,29.93,NE,42,0.0,1.0,89,0.02,,,0.00,weatherlink.com 1.10,2013-02-13 05:44:00,
2013-02-13 00:59:00,43.6,41.0,29.91,ENE,58,2.0,2.0,90,0.01,,,0.00,weatherlink.com 1.10,2013-02-13 05:59:00,
2013-02-13 01:14:00,43.6,41.0,29.92,NE,36,0.0,1.0,91,0.00,,,0.00,weatherlink.com 1.10,2013-02-13 06:14:00,
2013-02-13 01:29:00,43.5,41.0,29.90,NE,36,0.0,2.0,92,0.00,,,0.00,weatherlink.com 1.10,2013-02-13 06:29:00,
2013-02-13 01:44:00,43.4,42.0,29.89,NE,36,1.0,2.0,93,0.00,,,0.00,weatherlink.com 1.10,2013-02-13 06:44:00,
2013-02-13 01:59:00,43.2,41.0,29.88,NE,36,0.0,3.0,92,0.00,,,0.00,weatherlink.com 1.10,2013-02-13 06:59:00,
2013-02-13 02:14:00,43.1,41.0,29.88,NE,36,0.0,0.0,92,0.00,,,0.00,weatherlink.com 1.10,2013-02-13 07:14:00,
2013-02-13 02:29:00,43.0,41.0,29.87,NE,36,0.0,2.0,93,0.00,,,0.00,weatherlink.com 1.10,2013-02-13 07:29:00,
2013-02-13 02:44:00,43.0,41.0,29.86,NE,36,1.0,2.0,93,0.00,,,0.00,weatherlink.com 1.10,2013-02-13 07:44:00,
2013-02-13 02:59:00,42.9,41.0,29.84,NE,36,1.0,3.0,92,0.00,,,0.00,weatherlink.com 1.10,2013-02-13 07:59:00,
2013-02-13 03:14:00,43.0,41.0,29.85,NE,36,0.0,2.0,92,0.00,,,0.00,weatherlink.com 1.10,2013-02-13 08:14:00,
2013-02-13 03:29:00,43.0,41.0,29.84,NE,36,0.0,1.0,93,0.00,,,0.00,weatherlink.com 1.10,2013-02-13 08:29:00,
2013-02-13 03:44:00,42.9,41.0,29.82,NE,36,0.0,1.0,93,0.00,,,0.00,weatherlink.com 1.10,2013-02-13 08:44:00,
2013-02-13 03:59:00,42.6,41.0,29.81,NE,36,0.0,0.0,92,0.00,,,0.00,weatherlink.com 1.10,2013-02-13 08:59:00,
2013-02-13 04:14:00,42.3,40.0,29.81,NE,36,0.0,0.0,91,0.00,,,0.00,weatherlink.com 1.10,2013-02-13 09:14:00,
2013-02-13 04:29:00,42.0,40.0,29.81,ENE,75,1.0,2.0,92,0.00,,,0.00,weatherlink.com 1.10,2013-02-13 09:29:00,
2013-02-13 04:44:00,42.1,40.0,29.81,ENE,75,0.0,1.0,92,0.00,,,0.00,weatherlink.com 1.10,2013-02-13 09:44:00,
2013-02-13 04:59:00,42.1,40.0,29.81,ENE,76,1.0,1.0,92,0.00,,,0.00,weatherlink.com 1.10,2013-02-13 09:59:00,
2013-02-13 05:14:00,42.2,40.0,29.81,ENE,76,0.0,2.0,93,0.02,,,0.02,weatherlink.com 1.10,2013-02-13 10:14:00,
2013-02-13 05:29:00,42.1,40.0,29.81,ENE,76,0.0,1.0,93,0.03,,,0.03,weatherlink.com 1.10,2013-02-13 10:29:00,
2013-02-13 05:44:00,42.0,40.0,29.83,ENE,76,0.0,1.0,94,0.04,,,0.04,weatherlink.com 1.10,2013-02-13 10:44:00,
2013-02-13 05:59:00,42.0,40.0,29.83,ENE,76,0.0,0.0,94,0.06,,,0.06,weatherlink.com 1.10,2013-02-13 10:59:00,
2013-02-13 06:14:00,41.9,40.0,29.82,SSE,147,2.0,4.0,94,0.05,,,0.07,weatherlink.com 1.10,2013-02-13 11:14:00,
2013-02-13 06:29:00,41.9,40.0,29.81,SSE,150,3.0,4.0,94,0.05,,,0.08,weatherlink.com 1.10,2013-02-13 11:29:00,
2013-02-13 06:44:00,41.8,41.0,29.80,SSE,156,2.0,2.0,95,0.03,,,0.08,weatherlink.com 1.10,2013-02-13 11:44:00,
2013-02-13 06:59:00,41.8,41.0,29.81,SSW,208,1.0,2.0,95,0.02,,,0.08,weatherlink.com 1.10,2013-02-13 11:59:00,
2013-02-13 07:14:00,41.8,41.0,29.80,South,171,0.0,3.0,95,0.03,,,0.10,weatherlink.com 1.10,2013-02-13 12:14:00,
2013-02-13 07:29:00,41.7,40.0,29.79,SE,141,1.0,2.0,95,0.04,,,0.12,weatherlink.com 1.10,2013-02-13 12:29:00,
2013-02-13 07:44:00,41.9,41.0,29.80,SSE,155,1.0,2.0,95,0.07,,,0.15,weatherlink.com 1.10,2013-02-13 12:44:00,
2013-02-13 07:59:00,41.9,41.0,29.84,WSW,255,1.0,3.0,95,0.08,,,0.16,weatherlink.com 1.10,2013-02-13 12:59:00,
2013-02-13 08:14:00,41.9,41.0,29.81,SE,142,0.0,2.0,96,0.09,,,0.19,weatherlink.com 1.10,2013-02-13 13:14:00,
2013-02-13 08:29:00,41.9,41.0,29.82,South,175,1.0,4.0,96,0.08,,,0.20,weatherlink.com 1.10,2013-02-13 13:29:00,
2013-02-13 08:44:00,41.9,41.0,29.81,SE,140,0.0,3.0,96,0.05,,,0.20,weatherlink.com 1.10,2013-02-13 13:44:00,
2013-02-13 08:59:00,42.0,41.0,29.81,South,188,1.0,4.0,96,0.05,,,0.21,weatherlink.com 1.10,2013-02-13 13:59:00,
2013-02-13 09:14:00,42.2,41.0,29.81,South,178,1.0,2.0,96,0.02,,,0.21,weatherlink.com 1.10,2013-02-13 14:14:00,
2013-02-13 09:29:00,42.4,41.0,29.79,SE,134,0.0,3.0,96,0.01,,,0.21,weatherlink.com 1.10,2013-02-13 14:29:00,
2013-02-13 09:44:00,42.5,42.0,29.78,ESE,114,0.0,3.0,96,0.01,,,0.21,weatherlink.com 1.10,2013-02-13 14:44:00,
2013-02-13 09:59:00,42.8,42.0,29.78,SSW,195,1.0,3.0,96,0.01,,,0.22,weatherlink.com 1.10,2013-02-13 14:59:00,
2013-02-13 10:14:00,43.0,42.0,29.77,SE,144,0.0,2.0,96,0.01,,,0.22,weatherlink.com 1.10,2013-02-13 15:14:00,
2013-02-13 10:30:00,43.2,42.0,29.76,SE,140,0.0,3.0,96,0.01,,,0.22,weatherlink.com 1.10,2013-02-13 15:30:00,
2013-02-13 10:45:00,43.1,42.0,29.77,ESE,118,2.0,2.0,96,0.01,,,0.22,weatherlink.com 1.10,2013-02-13 15:45:00,
2013-02-13 11:00:00,43.0,42.0,29.77,SE,146,2.0,5.0,96,0.00,,,0.22,weatherlink.com 1.10,2013-02-13 16:00:00,
2013-02-13 11:15:00,43.0,42.0,29.77,SE,146,0.0,3.0,96,0.00,,,0.22,weatherlink.com 1.10,2013-02-13 16:15:00,
2013-02-13 11:30:00,43.1,42.0,29.76,East,101,1.0,2.0,96,0.01,,,0.23,weatherlink.com 1.10,2013-02-13 16:30:00,
2013-02-13 11:45:00,43.2,42.0,29.75,South,180,0.0,4.0,96,0.01,,,0.23,weatherlink.com 1.10,2013-02-13 16:45:00,
2013-02-13 12:00:00,43.3,42.0,29.73,SSE,157,1.0,2.0,96,0.01,,,0.23,weatherlink.com 1.10,2013-02-13 17:00:00,
2013-02-13 12:15:00,43.4,42.0,29.72,SE,146,0.0,2.0,95,0.02,,,0.24,weatherlink.com 1.10,2013-02-13 17:15:00,
2013-02-13 12:30:00,43.6,43.0,29.71,SE,145,0.0,2.0,96,0.01,,,0.24,weatherlink.com 1.10,2013-02-13 17:30:00,
2013-02-13 12:45:00,43.8,43.0,29.68,SSE,158,2.0,3.0,95,0.01,,,0.24,weatherlink.com 1.10,2013-02-13 17:45:00,
2013-02-13 13:00:00,43.9,43.0,29.68,ESE,119,1.0,3.0,95,0.01,,,0.24,weatherlink.com 1.10,2013-02-13 18:00:00,
2013-02-13 13:15:00,44.3,43.0,29.67,South,178,0.0,3.0,96,0.00,,,0.24,weatherlink.com 1.10,2013-02-13 18:15:00,
2013-02-13 13:30:00,44.1,43.0,29.66,South,180,0.0,3.0,95,0.01,,,0.25,weatherlink.com 1.10,2013-02-13 18:30:00,
2013-02-13 13:45:00,44.1,43.0,29.66,South,178,0.0,3.0,95,0.01,,,0.25,weatherlink.com 1.10,2013-02-13 18:45:00,
2013-02-13 14:00:00,44.3,43.0,29.64,East,85,0.0,3.0,95,0.01,,,0.25,weatherlink.com 1.10,2013-02-13 19:00:00,
2013-02-13 14:15:00,44.4,43.0,29.64,SSE,158,1.0,3.0,95,0.01,,,0.25,weatherlink.com 1.10,2013-02-13 19:15:00,
2013-02-13 14:30:00,44.4,43.0,29.63,South,185,1.0,3.0,95,0.00,,,0.25,weatherlink.com 1.10,2013-02-13 19:30:00,
2013-02-13 14:45:00,44.4,43.0,29.63,SSW,196,0.0,4.0,95,0.00,,,0.25,weatherlink.com 1.10,2013-02-13 19:45:00,
2013-02-13 15:00:00,44.8,44.0,29.64,ESE,120,0.0,2.0,96,0.00,,,0.25,weatherlink.com 1.10,2013-02-13 20:00:00,
2013-02-13 15:15:00,44.5,43.0,29.64,SE,144,3.0,5.0,95,0.00,,,0.25,weatherlink.com 1.10,2013-02-13 20:15:00,
2013-02-13 15:30:00,44.6,43.0,29.64,SSE,166,1.0,5.0,95,0.00,,,0.25,weatherlink.com 1.10,2013-02-13 20:30:00,
2013-02-13 15:45:00,44.5,43.0,29.64,South,190,0.0,5.0,95,0.00,,,0.25,weatherlink.com 1.10,2013-02-13 20:45:00,
2013-02-13 16:00:00,44.6,43.0,29.64,SW,229,0.0,3.0,95,0.00,,,0.25,weatherlink.com 1.10,2013-02-13 21:00:00,
2013-02-13 16:15:00,44.5,43.0,29.64,WSW,248,0.0,5.0,95,0.00,,,0.25,weatherlink.com 1.10,2013-02-13 21:15:00,
2013-02-13 16:30:00,44.5,43.0,29.65,SSE,157,2.0,4.0,95,0.01,,,0.26,weatherlink.com 1.10,2013-02-13 21:30:00,
2013-02-13 16:45:00,44.6,43.0,29.64,SSE,159,3.0,7.0,95,0.01,,,0.26,weatherlink.com 1.10,2013-02-13 21:45:00,
2013-02-13 17:00:00,44.5,43.0,29.64,WSW,257,0.0,5.0,95,0.01,,,0.26,weatherlink.com 1.10,2013-02-13 22:00:00,
2013-02-13 17:15:00,44.5,43.0,29.65,WSW,249,2.0,6.0,95,0.01,,,0.26,weatherlink.com 1.10,2013-02-13 22:15:00,
2013-02-13 17:30:00,44.5,43.0,29.65,SSW,206,3.0,5.0,95,0.00,,,0.26,weatherlink.com 1.10,2013-02-13 22:30:00,
2013-02-13 17:45:00,44.5,43.0,29.65,SSW,198,2.0,6.0,95,0.00,,,0.26,weatherlink.com 1.10,2013-02-13 22:45:00,
2013-02-13 18:00:00,44.3,43.0,29.65,West,269,2.0,6.0,95,0.00,,,0.26,weatherlink.com 1.10,2013-02-13 23:00:00,
2013-02-13 18:15:00,44.2,43.0,29.66,SSE,166,0.0,6.0,95,0.00,,,0.26,weatherlink.com 1.10,2013-02-13 23:15:00,
2013-02-13 18:30:00,44.3,43.0,29.67,WNW,296,2.0,6.0,95,0.00,,,0.26,weatherlink.com 1.10,2013-02-13 23:30:00,
2013-02-13 18:45:00,44.4,43.0,29.68,SW,217,2.0,6.0,95,0.00,,,0.26,weatherlink.com 1.10,2013-02-13 23:45:00,
2013-02-13 19:00:00,44.5,43.0,29.70,South,184,0.0,4.0,95,0.00,,,0.26,weatherlink.com 1.10,2013-02-14 00:00:00,
2013-02-13 19:15:00,44.4,43.0,29.70,South,180,2.0,7.0,95,0.00,,,0.26,weatherlink.com 1.10,2013-02-14 00:15:00,
2013-02-13 19:30:00,44.4,43.0,29.71,WNW,286,3.0,9.0,94,0.00,,,0.26,weatherlink.com 1.10,2013-02-14 00:30:00,
2013-02-13 19:45:00,44.5,43.0,29.73,NW,316,3.0,6.0,94,0.00,,,0.26,weatherlink.com 1.10,2013-02-14 00:45:00,
2013-02-13 20:00:00,44.2,42.0,29.75,West,267,7.0,11.0,90,0.00,,,0.26,weatherlink.com 1.10,2013-02-14 01:00:00,
2013-02-13 20:15:00,43.0,38.0,29.75,WNW,288,5.0,9.0,82,0.00,,,0.26,weatherlink.com 1.10,2013-02-14 01:15:00,
2013-02-13 20:30:00,42.1,35.0,29.76,NW,318,4.0,9.0,75,0.00,,,0.26,weatherlink.com 1.10,2013-02-14 01:30:00,
2013-02-13 20:45:00,41.5,34.0,29.77,NNW,329,3.0,12.0,75,0.00,,,0.26,weatherlink.com 1.10,2013-02-14 01:45:00,
2013-02-13 21:00:00,40.9,34.0,29.78,West,265,3.0,7.0,75,0.00,,,0.26,weatherlink.com 1.10,2013-02-14 02:00:00,
2013-02-13 21:15:00,40.2,34.0,29.79,West,263,3.0,4.0,77,0.00,,,0.26,weatherlink.com 1.10,2013-02-14 02:15:00,
2013-02-13 21:30:00,39.8,33.0,29.80,South,186,2.0,5.0,77,0.00,,,0.26,weatherlink.com 1.10,2013-02-14 02:30:00,
2013-02-13 21:45:00,38.7,34.0,29.80,WNW,286,2.0,3.0,83,0.00,,,0.26,weatherlink.com 1.10,2013-02-14 02:45:00,
2013-02-13 22:00:00,38.9,33.0,29.80,West,278,2.0,10.0,78,0.00,,,0.26,weatherlink.com 1.10,2013-02-14 03:00:00,
2013-02-13 22:15:00,39.2,33.0,29.81,West,275,2.0,5.0,77,0.00,,,0.26,weatherlink.com 1.10,2013-02-14 03:15:00,
2013-02-13 22:30:00,39.1,32.0,29.81,WNW,288,2.0,6.0,76,0.00,,,0.26,weatherlink.com 1.10,2013-02-14 03:30:00,
2013-02-13 22:46:00,38.7,32.0,29.82,NW,304,2.0,6.0,78,0.00,,,0.26,weatherlink.com 1.10,2013-02-14 03:46:00,
2013-02-13 23:01:00,38.3,32.0,29.83,SW,229,1.0,4.0,77,0.00,,,0.26,weatherlink.com 1.10,2013-02-14 04:01:00,
2013-02-13 23:16:00,37.6,32.0,29.82,WNW,296,2.0,4.0,80,0.00,,,0.26,weatherlink.com 1.10,2013-02-14 04:16:00,
2013-02-13 23:46:00,37.3,32.0,29.83,WNW,287,1.0,4.0,80,0.00,,,0.26,weatherlink.com 1.10,2013-02-14 04:46:00,